createdAt,value
2018-12-25T00:01:12.948Z,4.43
2018-12-25T00:03:43.894Z,4.22
2018-12-25T00:06:12.881Z,4.25
2018-12-25T00:08:41.827Z,4.60
2018-12-25T00:11:10.987Z,4.37
2018-12-25T00:13:40.166Z,4.90
2018-12-25T00:19:08.255Z,3.97
2018-12-25T00:21:37.307Z,3.80
2018-12-25T00:24:06.389Z,3.23
2018-12-25T00:26:35.457Z,3.70
2018-12-25T00:29:04.397Z,3.33
2018-12-25T00:31:33.348Z,3.77
2018-12-25T00:34:02.253Z,3.70
2018-12-25T00:36:31.256Z,3.77
2018-12-25T00:39:00.341Z,3.80
2018-12-25T00:41:29.284Z,3.40
2018-12-25T00:43:58.233Z,3.83
2018-12-25T00:46:27.256Z,3.93
2018-12-25T00:48:56.282Z,3.77
2018-12-25T00:51:25.334Z,3.80
2018-12-25T00:53:54.413Z,4.27
2018-12-25T00:56:23.368Z,4.03
2018-12-25T00:58:52.353Z,4.07
2018-12-25T01:01:21.392Z,4.53
2018-12-25T01:03:50.384Z,4.20
2018-12-25T01:06:19.416Z,4.40
2018-12-25T01:08:48.360Z,3.80
2018-12-25T01:11:17.446Z,4.03
2018-12-25T01:13:46.357Z,3.67
2018-12-25T01:16:15.261Z,4.20
2018-12-25T01:18:44.222Z,4.60
2018-12-25T01:21:13.121Z,4.23
2018-12-25T01:23:42.173Z,4.40
2018-12-25T01:26:11.176Z,4.13
2018-12-25T01:28:40.339Z,4.20
2018-12-25T01:31:09.369Z,4.27
2018-12-25T01:33:38.321Z,4.60
2018-12-25T01:36:07.315Z,4.30
2018-12-25T01:38:36.409Z,4.30
2018-12-25T01:41:05.640Z,4.23
2018-12-25T01:43:34.632Z,4.07
2018-12-25T01:46:03.638Z,4.30
2018-12-25T01:48:32.627Z,4.07
2018-12-25T01:51:01.568Z,4.17
2018-12-25T01:53:30.495Z,4.40
2018-12-25T01:55:59.571Z,3.90
2018-12-25T01:58:28.525Z,4.23
2018-12-25T02:00:57.452Z,4.30
2018-12-25T02:03:26.376Z,4.37
2018-12-25T02:05:55.353Z,4.40
2018-12-25T02:08:43.282Z,4.20
2018-12-25T02:11:12.313Z,4.00
2018-12-25T02:13:41.337Z,4.83
2018-12-25T02:19:03.496Z,4.70
2018-12-25T02:21:32.453Z,4.23
2018-12-25T02:24:01.465Z,4.07
2018-12-25T02:26:30.379Z,4.00
2018-12-25T02:28:59.346Z,4.40
2018-12-25T02:31:28.256Z,4.33
2018-12-25T02:33:57.277Z,4.90
2018-12-25T02:36:26.341Z,4.47
2018-12-25T02:38:55.321Z,4.33
2018-12-25T02:41:24.331Z,4.77
2018-12-25T02:43:53.362Z,4.23
2018-12-25T02:46:22.434Z,4.30
2018-12-25T02:48:51.352Z,4.33
2018-12-25T02:51:20.323Z,4.70
2018-12-25T02:53:49.208Z,4.23
2018-12-25T02:56:18.209Z,4.40
2018-12-25T02:58:47.248Z,4.53
2018-12-25T03:01:16.156Z,5.03
2018-12-25T03:03:45.099Z,4.60
2018-12-25T03:06:14.049Z,4.90
2018-12-25T03:08:43.027Z,4.40
2018-12-25T03:11:12.153Z,5.07
2018-12-25T03:13:41.069Z,4.70
2018-12-25T03:16:10.061Z,4.67
2018-12-25T03:18:40.672Z,4.63
2018-12-25T03:21:09.683Z,4.00
2018-12-25T03:23:38.673Z,4.47
2018-12-25T03:26:07.665Z,4.37
2018-12-25T03:28:36.746Z,4.80
2018-12-25T03:31:07.370Z,4.33
2018-12-25T03:33:36.302Z,5.27
2018-12-25T03:36:05.434Z,4.40
2018-12-25T03:38:34.362Z,4.80
2018-12-25T03:41:03.448Z,4.50
2018-12-25T03:43:32.520Z,4.93
2018-12-25T03:46:01.445Z,4.43
2018-12-25T03:48:30.474Z,4.70
2018-12-25T03:50:59.442Z,4.90
2018-12-25T03:53:28.493Z,4.57
2018-12-25T03:55:57.550Z,4.40
2018-12-25T03:58:26.502Z,4.30
2018-12-25T04:00:55.498Z,4.97
2018-12-25T04:03:26.078Z,5.40
2018-12-25T04:05:55.054Z,4.70
2018-12-25T04:08:24.023Z,5.00
2018-12-25T04:10:52.966Z,5.00
2018-12-25T04:13:22.021Z,5.20
2018-12-25T04:15:50.925Z,5.37
2018-12-25T04:18:20.060Z,5.20
2018-12-25T04:20:49.002Z,4.97
2018-12-25T04:23:18.038Z,5.20
2018-12-25T04:25:46.957Z,5.20
2018-12-25T04:28:16.035Z,4.83
2018-12-25T04:31:04.279Z,4.90
2018-12-25T04:33:33.201Z,5.23
2018-12-25T04:36:02.105Z,4.77
2018-12-25T04:38:31.118Z,4.63
2018-12-25T04:41:00.059Z,4.60
2018-12-25T04:43:30.571Z,5.23
2018-12-25T04:48:40.617Z,5.00
2018-12-25T04:51:09.625Z,5.17
2018-12-25T04:53:38.542Z,4.87
2018-12-25T04:56:07.546Z,5.30
2018-12-25T04:58:36.478Z,5.30
2018-12-25T05:01:05.399Z,5.70
2018-12-25T05:03:34.403Z,5.10
2018-12-25T05:06:03.363Z,5.63
2018-12-25T05:08:32.438Z,4.63
2018-12-25T05:11:01.360Z,5.33
2018-12-25T05:13:30.462Z,4.50
2018-12-25T05:15:59.364Z,4.90
2018-12-25T05:18:28.290Z,5.10
2018-12-25T05:20:57.217Z,5.00
2018-12-25T05:23:26.163Z,4.67
2018-12-25T05:25:55.156Z,5.73
2018-12-25T05:28:24.066Z,5.27
2018-12-25T05:30:53.060Z,5.40
2018-12-25T05:33:22.040Z,5.00
2018-12-25T05:35:50.960Z,5.40
2018-12-25T05:38:20.069Z,5.30
2018-12-25T05:40:49.000Z,5.10
2018-12-25T05:43:18.012Z,4.83
2018-12-25T05:45:47.023Z,5.27
2018-12-25T05:48:16.005Z,5.37
2018-12-25T05:50:46.893Z,5.43
2018-12-25T05:53:21.280Z,5.57
2018-12-25T05:55:50.204Z,5.03
2018-12-25T05:58:19.185Z,4.60
2018-12-25T06:00:48.774Z,5.27
2018-12-25T06:03:17.829Z,5.20
2018-12-25T06:05:46.908Z,6.47
2018-12-25T06:08:16.818Z,6.62
2018-12-25T06:16:20.793Z,6.65
2018-12-25T06:18:49.845Z,6.20
2018-12-25T06:21:18.811Z,6.78
2018-12-25T06:23:47.731Z,6.45
2018-12-25T06:26:16.664Z,6.75
2018-12-25T06:28:45.657Z,7.20
2018-12-25T06:31:14.718Z,7.15
2018-12-25T06:33:49.234Z,6.80
2018-12-25T06:36:18.248Z,6.78
2018-12-25T06:38:47.258Z,6.58
2018-12-25T06:41:17.896Z,7.08
2018-12-25T06:43:46.845Z,6.45
2018-12-25T06:50:54.684Z,6.20
2018-12-25T06:53:23.296Z,6.80
2018-12-25T06:55:51.985Z,6.78
2018-12-25T06:58:20.584Z,6.90
2018-12-25T07:00:49.236Z,6.25
2018-12-25T07:03:18.088Z,6.47
2018-12-25T07:05:46.717Z,6.37
2018-12-25T07:08:15.377Z,6.33
2018-12-25T07:13:25.469Z,6.50
2018-12-25T07:16:06.053Z,6.37
2018-12-25T07:18:34.762Z,6.87
2018-12-25T07:21:11.870Z,6.07
2018-12-25T07:23:39.153Z,5.63
2018-12-25T07:26:07.740Z,6.23
2018-12-25T07:28:36.437Z,5.80
2018-12-25T07:31:05.123Z,5.87
2018-12-25T07:33:33.716Z,5.93
2018-12-25T07:36:02.435Z,5.60
2018-12-25T07:38:31.048Z,6.85
2018-12-25T07:40:59.785Z,6.67
2018-12-25T07:43:28.498Z,5.90
2018-12-25T07:45:57.092Z,5.70
2018-12-25T07:48:25.822Z,6.10
2018-12-25T07:54:03.143Z,6.10
2018-12-25T07:56:31.816Z,5.77
2018-12-25T07:59:00.504Z,6.10
2018-12-25T08:01:29.096Z,5.63
2018-12-25T08:03:57.792Z,5.97
2018-12-25T08:06:26.454Z,6.00
2018-12-25T08:08:55.071Z,6.17
2018-12-25T08:11:23.680Z,6.07
2018-12-25T08:13:52.316Z,5.73
2018-12-25T08:16:21.028Z,6.10
2018-12-25T08:21:30.510Z,6.37
2018-12-25T08:23:59.199Z,6.27
2018-12-25T08:26:27.876Z,7.45
2018-12-25T08:28:56.648Z,8.23
2018-12-25T08:31:25.305Z,7.83
2018-12-25T08:33:54.085Z,7.47
2018-12-25T08:36:22.712Z,7.33
2018-12-25T08:38:51.353Z,8.15
2018-12-25T08:41:19.983Z,7.92
2018-12-25T08:44:07.715Z,7.53
2018-12-25T08:46:36.319Z,7.40
2018-12-25T08:49:05.087Z,8.10
2018-12-25T08:51:37.676Z,7.10
2018-12-25T08:54:09.935Z,7.33
2018-12-25T08:56:38.591Z,7.75
2018-12-25T08:59:07.200Z,7.77
2018-12-25T09:01:35.888Z,8.08
2018-12-25T09:04:05.421Z,7.60
2018-12-25T09:09:27.885Z,7.40
2018-12-25T09:11:56.745Z,7.65
2018-12-25T09:14:25.441Z,7.78
2018-12-25T09:16:54.140Z,7.50
2018-12-25T09:19:22.805Z,7.53
2018-12-25T09:21:51.484Z,7.45
2018-12-25T09:24:20.205Z,7.15
2018-12-25T09:26:48.856Z,7.20
2018-12-25T09:29:17.694Z,6.83
2018-12-25T09:31:46.356Z,7.70
2018-12-25T09:34:15.089Z,7.28
2018-12-25T09:36:43.769Z,7.67
2018-12-25T09:39:12.431Z,7.42
2018-12-25T09:41:41.105Z,7.43
2018-12-25T09:44:09.759Z,7.60
2018-12-25T09:46:38.471Z,7.10
2018-12-25T09:49:07.235Z,7.60
2018-12-25T09:51:35.957Z,8.33
2018-12-25T09:56:45.504Z,8.10
2018-12-25T09:59:14.252Z,7.97
2018-12-25T10:01:42.949Z,7.55
2018-12-25T10:04:11.640Z,8.48
2018-12-25T10:06:40.360Z,7.72
2018-12-25T10:09:09.093Z,8.00
2018-12-25T10:11:44.361Z,7.65
2018-12-25T10:14:13.417Z,7.40
2018-12-25T10:16:42.052Z,7.83
2018-12-25T10:19:10.784Z,7.60
2018-12-25T10:21:39.412Z,7.70
2018-12-25T10:24:08.116Z,7.87
2018-12-25T10:26:36.755Z,8.40
2018-12-25T10:29:05.428Z,8.45
2018-12-25T10:31:34.071Z,8.03
2018-12-25T10:34:02.735Z,8.13
2018-12-25T10:36:31.589Z,8.13
2018-12-25T10:39:00.324Z,8.70
2018-12-25T10:41:28.989Z,8.60
2018-12-25T10:43:57.608Z,8.83
2018-12-25T10:46:26.240Z,8.60
2018-12-25T10:48:54.833Z,8.53
2018-12-25T10:54:04.072Z,8.28
2018-12-25T10:56:32.753Z,8.75
2018-12-25T10:59:01.340Z,8.38
2018-12-25T11:01:30.970Z,8.65
2018-12-25T11:03:59.641Z,8.13
2018-12-25T11:06:28.379Z,8.40
2018-12-25T11:08:57.004Z,8.90
2018-12-25T11:14:19.646Z,8.55
2018-12-25T11:16:48.423Z,8.23
2018-12-25T11:19:17.233Z,8.58
2018-12-25T11:21:46.069Z,8.65
2018-12-25T11:26:55.399Z,9.20
2018-12-25T11:29:24.245Z,8.80
2018-12-25T11:31:52.846Z,8.80
2018-12-25T11:34:21.549Z,9.37
2018-12-25T11:36:50.361Z,9.40
2018-12-25T11:39:19.058Z,9.00
2018-12-25T11:41:47.865Z,9.20
2018-12-25T11:44:16.683Z,9.10
2018-12-25T11:46:45.294Z,8.60
2018-12-25T11:49:14.034Z,8.93
2018-12-25T11:51:42.672Z,9.35
2018-12-25T11:54:11.367Z,9.40
2018-12-25T11:56:40.119Z,10.05
2018-12-25T11:59:27.830Z,9.95
2018-12-25T12:01:56.580Z,9.13
2018-12-25T12:04:25.272Z,9.13
2018-12-25T12:06:53.953Z,8.90
2018-12-25T12:12:45.003Z,8.85
2018-12-25T12:15:13.649Z,8.43
2018-12-25T12:17:42.305Z,8.93
2018-12-25T12:20:10.938Z,9.15
2018-12-25T12:22:39.587Z,9.58
2018-12-25T12:25:08.195Z,9.25
2018-12-25T12:27:37.465Z,8.80
2018-12-25T12:30:12.917Z,8.85
2018-12-25T12:32:41.591Z,8.70
2018-12-25T12:35:10.194Z,8.75
2018-12-25T12:37:38.799Z,8.67
2018-12-25T12:40:07.644Z,8.73
2018-12-25T12:42:36.402Z,8.77
2018-12-25T12:47:50.954Z,8.80
2018-12-25T12:53:00.544Z,9.10
2018-12-25T12:55:29.273Z,8.70
2018-12-25T12:57:58.061Z,7.23
2018-12-25T13:00:26.912Z,7.60
2018-12-25T13:02:55.552Z,7.67
2018-12-25T13:05:24.232Z,7.73
2018-12-25T13:07:52.864Z,7.87
2018-12-25T13:10:21.504Z,7.57
2018-12-25T13:15:43.788Z,8.27
2018-12-25T13:18:12.419Z,7.97
2018-12-25T13:20:41.137Z,8.77
2018-12-25T13:23:09.916Z,8.47
2018-12-25T13:25:38.564Z,7.90
2018-12-25T13:28:07.164Z,8.47
2018-12-25T13:30:35.802Z,8.17
2018-12-25T13:33:04.445Z,7.53
2018-12-25T13:35:33.067Z,8.17
2018-12-25T13:38:03.272Z,8.47
2018-12-25T13:40:31.977Z,7.90
2018-12-25T13:43:03.745Z,8.90
2018-12-25T13:45:32.368Z,8.83
2018-12-25T13:48:01.085Z,8.50
2018-12-25T13:50:31.354Z,8.17
2018-12-25T13:53:02.930Z,9.00
2018-12-25T13:55:49.656Z,8.60
2018-12-25T13:58:18.304Z,8.83
2018-12-25T14:00:47.015Z,8.30
2018-12-25T14:03:15.635Z,8.40
2018-12-25T14:05:44.376Z,7.83
2018-12-25T14:08:13.009Z,8.10
2018-12-25T14:10:41.768Z,8.13
2018-12-25T14:13:10.378Z,8.77
2018-12-25T14:15:39.118Z,8.17
2018-12-25T14:18:14.098Z,9.30
2018-12-25T14:20:42.715Z,8.40
2018-12-25T14:23:11.594Z,8.57
2018-12-25T14:26:00.960Z,9.07
2018-12-25T14:28:29.632Z,7.70
2018-12-25T14:30:58.281Z,7.67
2018-12-25T14:33:27.018Z,9.20
2018-12-25T14:35:55.680Z,9.65
2018-12-25T14:38:24.332Z,10.00
2018-12-25T14:40:53.029Z,9.38
2018-12-25T14:43:21.744Z,9.53
2018-12-25T14:45:50.356Z,12.47
2018-12-25T14:48:19.041Z,11.40
2018-12-25T14:50:47.637Z,12.03
2018-12-25T14:53:19.802Z,9.80
2018-12-25T14:56:05.869Z,9.33
2018-12-25T14:58:34.480Z,9.70
2018-12-25T15:01:03.184Z,12.73
2018-12-25T15:03:32.016Z,13.95
2018-12-25T15:06:00.921Z,47.65
2018-12-25T15:08:31.099Z,20.90
2018-12-25T15:10:59.887Z,11.47
2018-12-25T15:13:28.532Z,9.23
2018-12-25T15:15:57.222Z,19.67
2018-12-25T15:18:25.855Z,22.43
2018-12-25T15:20:54.566Z,26.17
2018-12-25T15:23:28.163Z,15.53
2018-12-25T15:25:59.421Z,11.40
2018-12-25T15:28:28.050Z,12.73
2018-12-25T15:30:56.681Z,14.53
2018-12-25T15:33:25.389Z,18.27
2018-12-25T15:35:54.058Z,17.00
2018-12-25T15:38:22.719Z,10.77
2018-12-25T15:40:51.412Z,9.57
2018-12-25T15:43:20.144Z,9.20
2018-12-25T15:45:48.800Z,8.60
2018-12-25T15:48:17.513Z,9.23
2018-12-25T15:50:46.192Z,9.33
2018-12-25T15:53:14.856Z,9.30
2018-12-25T15:55:43.619Z,10.30
2018-12-25T15:58:13.519Z,10.83
2018-12-25T16:00:42.203Z,11.93
2018-12-25T16:03:10.828Z,11.87
2018-12-25T16:05:39.479Z,12.78
2018-12-25T16:08:08.265Z,12.13
2018-12-25T16:10:37.039Z,12.40
2018-12-25T16:13:05.750Z,12.70
2018-12-25T16:15:34.503Z,12.60
2018-12-25T16:18:03.218Z,12.58
2018-12-25T16:20:31.825Z,12.95
2018-12-25T16:23:00.557Z,12.60
2018-12-25T16:25:29.189Z,12.37
2018-12-25T16:27:57.827Z,15.00
2018-12-25T16:30:26.459Z,14.68
2018-12-25T16:32:55.136Z,15.83
2018-12-25T16:35:25.400Z,14.13
2018-12-25T16:37:54.168Z,13.30
2018-12-25T16:40:22.804Z,13.67
2018-12-25T16:42:51.438Z,13.35
2018-12-25T16:45:20.292Z,13.95
2018-12-25T16:47:48.980Z,14.13
2018-12-25T16:50:17.791Z,13.60
2018-12-25T16:52:46.429Z,13.85
2018-12-25T16:55:15.072Z,13.88
2018-12-25T16:58:03.033Z,14.67
2018-12-25T17:00:32.281Z,14.90
2018-12-25T17:03:12.658Z,14.40
2018-12-25T17:05:41.452Z,13.45
2018-12-25T17:08:10.066Z,13.60
2018-12-25T17:10:38.784Z,13.98
2018-12-25T17:13:07.376Z,14.30
2018-12-25T17:15:36.061Z,13.68
2018-12-25T17:18:04.897Z,13.18
2018-12-25T17:20:33.652Z,13.20
2018-12-25T17:23:02.438Z,13.63
2018-12-25T17:25:34.115Z,14.20
2018-12-25T17:28:02.859Z,14.35
2018-12-25T17:30:31.571Z,14.47
2018-12-25T17:33:00.259Z,13.50
2018-12-25T17:35:28.949Z,13.53
2018-12-25T17:37:57.595Z,13.40
2018-12-25T17:40:26.268Z,13.45
2018-12-25T17:42:55.018Z,13.62
2018-12-25T17:45:25.309Z,13.35
2018-12-25T17:47:53.957Z,13.40
2018-12-25T17:50:22.624Z,13.00
2018-12-25T17:52:51.351Z,12.95
2018-12-25T17:55:19.996Z,13.00
2018-12-25T17:57:48.729Z,12.80
2018-12-25T18:00:17.412Z,13.47
2018-12-25T18:02:46.196Z,13.28
2018-12-25T18:05:14.908Z,13.20
2018-12-25T18:07:43.638Z,12.65
2018-12-25T18:10:12.240Z,13.65
2018-12-25T18:12:40.862Z,12.68
2018-12-25T18:15:09.624Z,12.63
2018-12-25T18:17:39.793Z,13.90
2018-12-25T18:20:08.456Z,14.17
2018-12-25T18:22:37.066Z,13.72
2018-12-25T18:25:05.781Z,14.30
2018-12-25T18:27:34.584Z,15.40
2018-12-25T18:30:03.269Z,15.45
2018-12-25T18:32:31.905Z,15.20
2018-12-25T18:35:00.627Z,15.08
2018-12-25T18:37:30.877Z,14.13
2018-12-25T18:40:01.107Z,13.30
2018-12-25T18:42:37.306Z,12.37
2018-12-25T18:45:06.207Z,13.20
2018-12-25T18:47:34.981Z,13.28
2018-12-25T18:50:03.892Z,12.37
2018-12-25T18:52:32.623Z,13.75
2018-12-25T18:57:49.161Z,13.22
2018-12-25T19:00:17.859Z,13.28
2018-12-25T19:02:46.521Z,13.13
2018-12-25T19:05:15.197Z,13.13
2018-12-25T19:07:43.804Z,13.98
2018-12-25T19:10:12.474Z,13.28
2018-12-25T19:12:41.107Z,12.88
2018-12-25T19:15:28.953Z,12.28
2018-12-25T19:17:58.324Z,12.10
2018-12-25T19:20:27.016Z,12.55
2018-12-25T19:22:55.858Z,12.25
2018-12-25T19:25:24.548Z,12.10
2018-12-25T19:27:53.221Z,12.95
2018-12-25T19:33:03.824Z,12.65
2018-12-25T19:35:32.516Z,12.93
2018-12-25T19:38:01.184Z,12.45
2018-12-25T19:40:31.370Z,12.60
2018-12-25T19:43:00.095Z,12.20
2018-12-25T19:45:40.741Z,12.80
2018-12-25T19:48:09.444Z,12.15
2018-12-25T19:50:38.258Z,12.15
2018-12-25T19:53:06.910Z,11.83
2018-12-25T19:55:35.715Z,11.60
2018-12-25T19:58:04.320Z,11.33
2018-12-25T20:00:33.060Z,11.30
2018-12-25T20:03:07.286Z,11.65
2018-12-25T20:05:55.002Z,11.38
2018-12-25T20:08:43.220Z,11.90
2018-12-25T20:11:18.940Z,12.10
2018-12-25T20:14:06.635Z,11.08
2018-12-25T20:16:55.967Z,11.95
2018-12-25T20:19:43.764Z,11.90
2018-12-25T20:22:31.460Z,12.30
2018-12-25T20:25:19.404Z,12.15
2018-12-25T20:28:07.233Z,11.75
2018-12-25T20:30:55.041Z,11.97
2018-12-25T20:33:28.330Z,12.30
2018-12-25T20:36:16.205Z,11.68
2018-12-25T20:39:04.441Z,11.95
2018-12-25T20:45:02.453Z,12.13
2018-12-25T20:47:50.141Z,12.53
2018-12-25T20:50:37.972Z,13.60
2018-12-25T20:53:25.834Z,12.90
2018-12-25T20:56:13.581Z,12.20
2018-12-25T20:59:01.313Z,12.15
2018-12-25T21:01:49.060Z,12.40
2018-12-25T21:04:37.003Z,12.65
2018-12-25T21:07:25.104Z,13.35
2018-12-25T21:13:37.450Z,12.93
2018-12-25T21:16:25.254Z,12.63
2018-12-25T21:19:13.122Z,12.78
2018-12-25T21:22:00.828Z,12.90
2018-12-25T21:24:48.620Z,12.98
2018-12-25T21:27:36.396Z,13.43
2018-12-25T21:30:06.164Z,13.77
2018-12-25T21:35:19.529Z,14.05
2018-12-25T21:37:48.172Z,12.82
2018-12-25T21:40:16.867Z,13.40
2018-12-25T21:48:47.894Z,15.23
2018-12-25T21:54:30.840Z,15.15
2018-12-25T21:56:59.521Z,13.13
2018-12-25T21:59:28.142Z,13.93
2018-12-25T22:01:56.856Z,14.40
2018-12-25T22:04:25.726Z,13.68
2018-12-25T22:06:54.533Z,13.48
2018-12-25T22:09:23.253Z,14.10
2018-12-25T22:11:57.818Z,13.60
2018-12-25T22:14:26.503Z,14.10
2018-12-25T22:16:55.244Z,13.25
2018-12-25T22:19:23.989Z,13.13
2018-12-25T22:21:55.681Z,13.38
2018-12-25T22:24:24.428Z,13.60
2018-12-25T22:26:53.228Z,13.15
2018-12-25T22:29:21.945Z,13.03
2018-12-25T22:31:53.446Z,12.68
2018-12-25T22:34:22.157Z,13.35
2018-12-25T22:37:02.342Z,13.43
2018-12-25T22:39:30.988Z,13.33
2018-12-25T22:41:59.773Z,13.40
2018-12-25T22:44:28.513Z,13.90
2018-12-25T22:46:58.821Z,13.70
2018-12-25T22:49:27.478Z,14.05
2018-12-25T22:51:56.185Z,13.80
2018-12-25T22:54:24.938Z,13.62
2018-12-25T22:56:53.679Z,13.65
2018-12-25T22:59:22.483Z,12.98
2018-12-25T23:01:51.214Z,12.55
2018-12-25T23:04:19.928Z,12.82
2018-12-25T23:06:48.707Z,12.95
2018-12-25T23:09:17.433Z,13.65
2018-12-25T23:11:46.199Z,13.10
2018-12-25T23:14:14.910Z,13.75
2018-12-25T23:16:43.631Z,13.75
2018-12-25T23:19:12.231Z,13.80
2018-12-25T23:21:40.899Z,13.50
2018-12-25T23:24:09.514Z,13.00
2018-12-25T23:26:38.214Z,13.13
2018-12-25T23:29:06.954Z,13.50
2018-12-25T23:31:35.650Z,13.93
2018-12-25T23:34:04.352Z,13.00
2018-12-25T23:36:33.003Z,12.68
2018-12-25T23:39:01.640Z,13.22
2018-12-25T23:41:30.354Z,13.05
2018-12-25T23:43:59.070Z,13.00
2018-12-25T23:46:27.669Z,12.60
2018-12-25T23:48:56.380Z,13.35
2018-12-25T23:51:25.357Z,13.22
2018-12-25T23:53:54.076Z,13.13
2018-12-25T23:56:22.790Z,13.45
2018-12-25T23:58:51.406Z,13.32
